sensor_id;sensor_type;location;lat;lon;timestamp;P1;durP1;ratioP1;P2;durP2;ratioP2
21890;SDS011;11110;52.386;16.940;2023-04-24T00:00:40;25.05;;;12.80;;
21890;SDS011;11110;52.386;16.940;2023-04-24T00:03:27;24.75;;;13.05;;
21890;SDS011;11110;52.386;16.940;2023-04-24T00:05:56;21.45;;;12.70;;
21890;SDS011;11110;52.386;16.940;2023-04-24T00:08:25;20.85;;;12.40;;
21890;SDS011;11110;52.386;16.940;2023-04-24T00:10:54;24.23;;;12.70;;
21890;SDS011;11110;52.386;16.940;2023-04-24T00:13:22;20.88;;;13.25;;
21890;SDS011;11110;52.386;16.940;2023-04-24T00:15:51;24.38;;;12.88;;
21890;SDS011;11110;52.386;16.940;2023-04-24T00:18:20;20.35;;;13.10;;
21890;SDS011;11110;52.386;16.940;2023-04-24T00:20:50;29.83;;;14.45;;
21890;SDS011;11110;52.386;16.940;2023-04-24T00:23:18;20.60;;;12.57;;
21890;SDS011;11110;52.386;16.940;2023-04-24T00:25:47;19.52;;;11.43;;
21890;SDS011;11110;52.386;16.940;2023-04-24T00:28:15;22.15;;;12.52;;
21890;SDS011;11110;52.386;16.940;2023-04-24T00:30:44;22.80;;;11.93;;
21890;SDS011;11110;52.386;16.940;2023-04-24T00:33:13;21.08;;;12.10;;
21890;SDS011;11110;52.386;16.940;2023-04-24T00:35:42;21.70;;;12.55;;
21890;SDS011;11110;52.386;16.940;2023-04-24T00:38:11;19.85;;;12.45;;
21890;SDS011;11110;52.386;16.940;2023-04-24T00:40:41;20.08;;;12.77;;
21890;SDS011;11110;52.386;16.940;2023-04-24T00:43:10;27.02;;;13.73;;
21890;SDS011;11110;52.386;16.940;2023-04-24T00:45:39;18.40;;;11.80;;
21890;SDS011;11110;52.386;16.940;2023-04-24T00:48:08;22.00;;;12.90;;
21890;SDS011;11110;52.386;16.940;2023-04-24T00:50:37;21.92;;;13.07;;
21890;SDS011;11110;52.386;16.940;2023-04-24T00:53:06;20.10;;;12.32;;
21890;SDS011;11110;52.386;16.940;2023-04-24T00:55:36;23.52;;;12.60;;
21890;SDS011;11110;52.386;16.940;2023-04-24T00:58:05;24.65;;;12.85;;
21890;SDS011;11110;52.386;16.940;2023-04-24T01:00:34;24.65;;;13.38;;
21890;SDS011;11110;52.386;16.940;2023-04-24T01:03:03;22.25;;;12.00;;
21890;SDS011;11110;52.386;16.940;2023-04-24T01:05:34;28.92;;;13.30;;
21890;SDS011;11110;52.386;16.940;2023-04-24T01:08:02;25.67;;;12.70;;
21890;SDS011;11110;52.386;16.940;2023-04-24T01:10:31;22.55;;;13.20;;
21890;SDS011;11110;52.386;16.940;2023-04-24T01:13:02;20.52;;;11.93;;
21890;SDS011;11110;52.386;16.940;2023-04-24T01:15:31;22.08;;;11.70;;
21890;SDS011;11110;52.386;16.940;2023-04-24T01:18:00;24.10;;;12.65;;
21890;SDS011;11110;52.386;16.940;2023-04-24T01:20:29;25.83;;;13.13;;
21890;SDS011;11110;52.386;16.940;2023-04-24T01:22:59;19.52;;;11.23;;
21890;SDS011;11110;52.386;16.940;2023-04-24T01:25:28;19.73;;;12.40;;
21890;SDS011;11110;52.386;16.940;2023-04-24T01:27:57;25.60;;;12.07;;
21890;SDS011;11110;52.386;16.940;2023-04-24T01:30:26;22.00;;;12.02;;
21890;SDS011;11110;52.386;16.940;2023-04-24T01:32:56;19.92;;;12.55;;
21890;SDS011;11110;52.386;16.940;2023-04-24T01:35:27;22.35;;;12.73;;
21890;SDS011;11110;52.386;16.940;2023-04-24T01:37:55;24.85;;;13.57;;
21890;SDS011;11110;52.386;16.940;2023-04-24T01:40:25;22.17;;;12.68;;
21890;SDS011;11110;52.386;16.940;2023-04-24T01:42:56;29.58;;;13.63;;
21890;SDS011;11110;52.386;16.940;2023-04-24T01:45:25;20.90;;;12.70;;
21890;SDS011;11110;52.386;16.940;2023-04-24T01:47:54;21.90;;;12.63;;
21890;SDS011;11110;52.386;16.940;2023-04-24T01:50:23;21.60;;;11.25;;
21890;SDS011;11110;52.386;16.940;2023-04-24T01:52:52;18.38;;;10.73;;
21890;SDS011;11110;52.386;16.940;2023-04-24T01:55:21;21.63;;;11.73;;
21890;SDS011;11110;52.386;16.940;2023-04-24T01:57:51;24.65;;;12.55;;
21890;SDS011;11110;52.386;16.940;2023-04-24T02:00:20;22.38;;;12.70;;
21890;SDS011;11110;52.386;16.940;2023-04-24T02:02:49;18.63;;;11.68;;
21890;SDS011;11110;52.386;16.940;2023-04-24T02:05:18;20.80;;;11.95;;
21890;SDS011;11110;52.386;16.940;2023-04-24T02:07:46;26.88;;;12.13;;
21890;SDS011;11110;52.386;16.940;2023-04-24T02:10:15;20.08;;;11.90;;
21890;SDS011;11110;52.386;16.940;2023-04-24T02:12:43;21.92;;;11.90;;
21890;SDS011;11110;52.386;16.940;2023-04-24T02:15:13;21.85;;;11.90;;
21890;SDS011;11110;52.386;16.940;2023-04-24T02:17:42;20.05;;;11.15;;
21890;SDS011;11110;52.386;16.940;2023-04-24T02:20:10;16.20;;;10.82;;
21890;SDS011;11110;52.386;16.940;2023-04-24T02:22:39;20.00;;;11.00;;
21890;SDS011;11110;52.386;16.940;2023-04-24T02:25:08;18.70;;;10.55;;
21890;SDS011;11110;52.386;16.940;2023-04-24T02:27:36;17.70;;;10.27;;
21890;SDS011;11110;52.386;16.940;2023-04-24T02:30:06;22.13;;;10.57;;
21890;SDS011;11110;52.386;16.940;2023-04-24T02:32:36;16.25;;;9.85;;
21890;SDS011;11110;52.386;16.940;2023-04-24T02:35:06;12.95;;;9.65;;
21890;SDS011;11110;52.386;16.940;2023-04-24T02:37:35;17.05;;;10.07;;
21890;SDS011;11110;52.386;16.940;2023-04-24T02:40:04;19.23;;;10.57;;
21890;SDS011;11110;52.386;16.940;2023-04-24T02:42:34;16.48;;;9.80;;
21890;SDS011;11110;52.386;16.940;2023-04-24T02:45:03;18.08;;;10.02;;
21890;SDS011;11110;52.386;16.940;2023-04-24T02:47:32;13.50;;;9.32;;
21890;SDS011;11110;52.386;16.940;2023-04-24T02:50:03;16.27;;;9.23;;
21890;SDS011;11110;52.386;16.940;2023-04-24T02:52:31;17.00;;;9.85;;
21890;SDS011;11110;52.386;16.940;2023-04-24T02:55:00;12.52;;;7.88;;
21890;SDS011;11110;52.386;16.940;2023-04-24T02:57:29;18.13;;;9.20;;
21890;SDS011;11110;52.386;16.940;2023-04-24T02:59:57;13.80;;;8.00;;
21890;SDS011;11110;52.386;16.940;2023-04-24T03:02:26;12.15;;;8.10;;
21890;SDS011;11110;52.386;16.940;2023-04-24T03:04:55;16.25;;;8.68;;
21890;SDS011;11110;52.386;16.940;2023-04-24T03:07:25;14.73;;;8.85;;
21890;SDS011;11110;52.386;16.940;2023-04-24T03:09:54;18.60;;;9.23;;
21890;SDS011;11110;52.386;16.940;2023-04-24T03:12:25;13.27;;;8.48;;
21890;SDS011;11110;52.386;16.940;2023-04-24T03:14:55;11.68;;;8.48;;
21890;SDS011;11110;52.386;16.940;2023-04-24T03:17:23;10.82;;;8.43;;
21890;SDS011;11110;52.386;16.940;2023-04-24T03:19:51;13.15;;;9.30;;
21890;SDS011;11110;52.386;16.940;2023-04-24T03:22:20;13.93;;;9.45;;
21890;SDS011;11110;52.386;16.940;2023-04-24T03:24:50;14.20;;;9.35;;
21890;SDS011;11110;52.386;16.940;2023-04-24T03:27:19;12.38;;;8.50;;
21890;SDS011;11110;52.386;16.940;2023-04-24T03:30:13;13.98;;;8.48;;
21890;SDS011;11110;52.386;16.940;2023-04-24T03:32:47;13.38;;;9.25;;
21890;SDS011;11110;52.386;16.940;2023-04-24T03:35:21;11.98;;;8.48;;
21890;SDS011;11110;52.386;16.940;2023-04-24T03:37:51;15.18;;;8.82;;
21890;SDS011;11110;52.386;16.940;2023-04-24T03:40:42;13.60;;;8.95;;
21890;SDS011;11110;52.386;16.940;2023-04-24T03:43:25;15.15;;;9.07;;
21890;SDS011;11110;52.386;16.940;2023-04-24T03:45:57;11.50;;;8.13;;
21890;SDS011;11110;52.386;16.940;2023-04-24T03:48:27;11.88;;;8.55;;
21890;SDS011;11110;52.386;16.940;2023-04-24T03:50:55;12.32;;;8.60;;
21890;SDS011;11110;52.386;16.940;2023-04-24T03:53:24;14.05;;;8.93;;
21890;SDS011;11110;52.386;16.940;2023-04-24T03:55:55;12.15;;;7.85;;
21890;SDS011;11110;52.386;16.940;2023-04-24T03:58:24;13.15;;;8.02;;
21890;SDS011;11110;52.386;16.940;2023-04-24T04:00:54;10.02;;;7.45;;
21890;SDS011;11110;52.386;16.940;2023-04-24T04:03:43;11.98;;;8.20;;
21890;SDS011;11110;52.386;16.940;2023-04-24T04:06:13;11.55;;;7.55;;
21890;SDS011;11110;52.386;16.940;2023-04-24T04:08:42;11.85;;;7.50;;
21890;SDS011;11110;52.386;16.940;2023-04-24T04:11:11;13.32;;;8.50;;
21890;SDS011;11110;52.386;16.940;2023-04-24T04:13:40;11.65;;;8.45;;
21890;SDS011;11110;52.386;16.940;2023-04-24T04:16:09;14.55;;;9.52;;
21890;SDS011;11110;52.386;16.940;2023-04-24T04:18:37;13.00;;;8.40;;
21890;SDS011;11110;52.386;16.940;2023-04-24T04:21:06;17.15;;;10.07;;
21890;SDS011;11110;52.386;16.940;2023-04-24T04:23:35;16.08;;;9.13;;
21890;SDS011;11110;52.386;16.940;2023-04-24T04:26:12;16.60;;;9.25;;
21890;SDS011;11110;52.386;16.940;2023-04-24T04:29:02;20.27;;;9.98;;
21890;SDS011;11110;52.386;16.940;2023-04-24T04:31:32;19.23;;;10.88;;
21890;SDS011;11110;52.386;16.940;2023-04-24T04:34:06;19.52;;;10.70;;
21890;SDS011;11110;52.386;16.940;2023-04-24T04:36:35;26.73;;;14.30;;
21890;SDS011;11110;52.386;16.940;2023-04-24T04:39:29;17.70;;;9.98;;
21890;SDS011;11110;52.386;16.940;2023-04-24T04:42:02;20.45;;;10.35;;
21890;SDS011;11110;52.386;16.940;2023-04-24T04:44:37;16.23;;;9.48;;
21890;SDS011;11110;52.386;16.940;2023-04-24T04:47:08;19.50;;;10.02;;
21890;SDS011;11110;52.386;16.940;2023-04-24T04:49:37;18.85;;;9.82;;
21890;SDS011;11110;52.386;16.940;2023-04-24T04:52:14;20.15;;;11.13;;
21890;SDS011;11110;52.386;16.940;2023-04-24T04:54:46;19.77;;;10.35;;
21890;SDS011;11110;52.386;16.940;2023-04-24T04:57:16;19.48;;;10.02;;
21890;SDS011;11110;52.386;16.940;2023-04-24T04:59:45;15.65;;;10.07;;
21890;SDS011;11110;52.386;16.940;2023-04-24T05:02:22;18.02;;;10.15;;
21890;SDS011;11110;52.386;16.940;2023-04-24T05:04:51;17.23;;;9.57;;
21890;SDS011;11110;52.386;16.940;2023-04-24T05:07:20;16.90;;;9.40;;
21890;SDS011;11110;52.386;16.940;2023-04-24T05:09:51;18.98;;;10.57;;
21890;SDS011;11110;52.386;16.940;2023-04-24T05:12:21;23.25;;;10.57;;
21890;SDS011;11110;52.386;16.940;2023-04-24T05:14:51;20.88;;;10.07;;
21890;SDS011;11110;52.386;16.940;2023-04-24T05:17:21;20.40;;;9.77;;
21890;SDS011;11110;52.386;16.940;2023-04-24T05:19:50;23.58;;;10.45;;
21890;SDS011;11110;52.386;16.940;2023-04-24T05:22:19;26.85;;;11.82;;
21890;SDS011;11110;52.386;16.940;2023-04-24T05:24:51;21.65;;;10.98;;
21890;SDS011;11110;52.386;16.940;2023-04-24T05:27:41;16.77;;;9.02;;
21890;SDS011;11110;52.386;16.940;2023-04-24T05:30:14;19.77;;;10.27;;
21890;SDS011;11110;52.386;16.940;2023-04-24T05:32:43;20.13;;;11.35;;
21890;SDS011;11110;52.386;16.940;2023-04-24T05:35:12;22.35;;;11.20;;
21890;SDS011;11110;52.386;16.940;2023-04-24T05:37:41;25.50;;;12.60;;
21890;SDS011;11110;52.386;16.940;2023-04-24T05:40:11;15.85;;;10.13;;
21890;SDS011;11110;52.386;16.940;2023-04-24T05:42:41;19.13;;;10.43;;
21890;SDS011;11110;52.386;16.940;2023-04-24T05:45:10;22.20;;;11.25;;
21890;SDS011;11110;52.386;16.940;2023-04-24T05:47:43;18.90;;;9.70;;
21890;SDS011;11110;52.386;16.940;2023-04-24T05:50:12;15.15;;;9.52;;
21890;SDS011;11110;52.386;16.940;2023-04-24T05:52:41;23.73;;;10.95;;
21890;SDS011;11110;52.386;16.940;2023-04-24T05:55:22;15.32;;;9.32;;
21890;SDS011;11110;52.386;16.940;2023-04-24T05:57:52;15.07;;;9.90;;
21890;SDS011;11110;52.386;16.940;2023-04-24T06:00:22;15.23;;;9.55;;
21890;SDS011;11110;52.386;16.940;2023-04-24T06:02:59;16.90;;;9.65;;
21890;SDS011;11110;52.386;16.940;2023-04-24T06:05:31;20.48;;;10.23;;
21890;SDS011;11110;52.386;16.940;2023-04-24T06:08:02;16.48;;;9.80;;
21890;SDS011;11110;52.386;16.940;2023-04-24T06:10:37;17.63;;;9.73;;
21890;SDS011;11110;52.386;16.940;2023-04-24T06:13:08;19.63;;;10.23;;
21890;SDS011;11110;52.386;16.940;2023-04-24T06:15:41;16.63;;;9.70;;
21890;SDS011;11110;52.386;16.940;2023-04-24T06:18:19;22.25;;;10.32;;
21890;SDS011;11110;52.386;16.940;2023-04-24T06:20:48;17.25;;;9.93;;
21890;SDS011;11110;52.386;16.940;2023-04-24T06:23:16;18.80;;;9.30;;
21890;SDS011;11110;52.386;16.940;2023-04-24T06:25:47;20.15;;;10.10;;
21890;SDS011;11110;52.386;16.940;2023-04-24T06:28:17;21.52;;;10.02;;
21890;SDS011;11110;52.386;16.940;2023-04-24T06:30:45;18.77;;;10.00;;
21890;SDS011;11110;52.386;16.940;2023-04-24T06:33:14;19.92;;;10.25;;
21890;SDS011;11110;52.386;16.940;2023-04-24T06:35:47;15.85;;;9.18;;
21890;SDS011;11110;52.386;16.940;2023-04-24T06:38:16;20.02;;;10.18;;
21890;SDS011;11110;52.386;16.940;2023-04-24T06:40:44;18.15;;;9.68;;
21890;SDS011;11110;52.386;16.940;2023-04-24T06:43:13;17.23;;;9.73;;
21890;SDS011;11110;52.386;16.940;2023-04-24T06:45:42;21.50;;;12.25;;
21890;SDS011;11110;52.386;16.940;2023-04-24T06:48:12;23.05;;;11.48;;
21890;SDS011;11110;52.386;16.940;2023-04-24T06:50:40;20.38;;;10.55;;
21890;SDS011;11110;52.386;16.940;2023-04-24T06:53:08;20.25;;;10.65;;
21890;SDS011;11110;52.386;16.940;2023-04-24T06:55:39;20.90;;;10.25;;
21890;SDS011;11110;52.386;16.940;2023-04-24T06:58:08;18.55;;;9.95;;
21890;SDS011;11110;52.386;16.940;2023-04-24T07:00:36;17.17;;;9.95;;
21890;SDS011;11110;52.386;16.940;2023-04-24T07:03:06;18.25;;;9.82;;
21890;SDS011;11110;52.386;16.940;2023-04-24T07:05:35;19.27;;;10.68;;
21890;SDS011;11110;52.386;16.940;2023-04-24T07:08:04;17.13;;;9.68;;
21890;SDS011;11110;52.386;16.940;2023-04-24T07:10:33;17.90;;;9.10;;
21890;SDS011;11110;52.386;16.940;2023-04-24T07:13:02;18.15;;;10.13;;
21890;SDS011;11110;52.386;16.940;2023-04-24T07:15:31;15.35;;;9.13;;
21890;SDS011;11110;52.386;16.940;2023-04-24T07:18:00;33.03;;;18.67;;
21890;SDS011;11110;52.386;16.940;2023-04-24T07:20:33;28.17;;;11.65;;
21890;SDS011;11110;52.386;16.940;2023-04-24T07:23:02;18.05;;;9.85;;
21890;SDS011;11110;52.386;16.940;2023-04-24T07:25:30;20.17;;;10.40;;
21890;SDS011;11110;52.386;16.940;2023-04-24T07:27:59;17.27;;;9.48;;
21890;SDS011;11110;52.386;16.940;2023-04-24T07:30:27;21.02;;;9.60;;
21890;SDS011;11110;52.386;16.940;2023-04-24T07:32:57;13.77;;;9.30;;
21890;SDS011;11110;52.386;16.940;2023-04-24T07:35:25;16.70;;;9.27;;
21890;SDS011;11110;52.386;16.940;2023-04-24T07:37:55;16.98;;;9.30;;
21890;SDS011;11110;52.386;16.940;2023-04-24T07:40:23;16.30;;;8.90;;
21890;SDS011;11110;52.386;16.940;2023-04-24T07:42:52;16.90;;;8.73;;
21890;SDS011;11110;52.386;16.940;2023-04-24T07:45:20;19.67;;;10.30;;
21890;SDS011;11110;52.386;16.940;2023-04-24T07:47:50;18.88;;;10.20;;
21890;SDS011;11110;52.386;16.940;2023-04-24T07:50:18;15.80;;;8.48;;
21890;SDS011;11110;52.386;16.940;2023-04-24T07:52:47;15.02;;;9.55;;
21890;SDS011;11110;52.386;16.940;2023-04-24T07:55:17;13.23;;;8.60;;
21890;SDS011;11110;52.386;16.940;2023-04-24T07:57:50;15.02;;;8.63;;
21890;SDS011;11110;52.386;16.940;2023-04-24T08:00:19;19.15;;;10.07;;
21890;SDS011;11110;52.386;16.940;2023-04-24T08:02:48;18.95;;;9.60;;
21890;SDS011;11110;52.386;16.940;2023-04-24T08:05:17;15.18;;;8.75;;
21890;SDS011;11110;52.386;16.940;2023-04-24T08:07:46;15.13;;;8.55;;
21890;SDS011;11110;52.386;16.940;2023-04-24T08:10:18;18.35;;;9.40;;
21890;SDS011;11110;52.386;16.940;2023-04-24T08:12:46;13.73;;;8.25;;
21890;SDS011;11110;52.386;16.940;2023-04-24T08:15:15;18.33;;;9.20;;
21890;SDS011;11110;52.386;16.940;2023-04-24T08:17:43;15.65;;;9.15;;
21890;SDS011;11110;52.386;16.940;2023-04-24T08:20:12;16.60;;;9.13;;
21890;SDS011;11110;52.386;16.940;2023-04-24T08:22:41;15.48;;;8.10;;
21890;SDS011;11110;52.386;16.940;2023-04-24T08:25:10;17.55;;;9.25;;
21890;SDS011;11110;52.386;16.940;2023-04-24T08:27:40;17.77;;;9.50;;
21890;SDS011;11110;52.386;16.940;2023-04-24T08:30:09;18.20;;;8.90;;
21890;SDS011;11110;52.386;16.940;2023-04-24T08:32:38;15.30;;;8.98;;
21890;SDS011;11110;52.386;16.940;2023-04-24T08:35:07;15.35;;;8.93;;
21890;SDS011;11110;52.386;16.940;2023-04-24T08:37:36;19.50;;;8.98;;
21890;SDS011;11110;52.386;16.940;2023-04-24T08:40:06;19.48;;;9.00;;
21890;SDS011;11110;52.386;16.940;2023-04-24T08:42:43;13.93;;;8.30;;
21890;SDS011;11110;52.386;16.940;2023-04-24T08:45:12;18.13;;;10.23;;
21890;SDS011;11110;52.386;16.940;2023-04-24T08:47:41;14.95;;;9.30;;
21890;SDS011;11110;52.386;16.940;2023-04-24T08:50:11;16.88;;;9.65;;
21890;SDS011;11110;52.386;16.940;2023-04-24T08:52:39;15.00;;;8.80;;
21890;SDS011;11110;52.386;16.940;2023-04-24T08:55:10;12.00;;;8.02;;
21890;SDS011;11110;52.386;16.940;2023-04-24T08:57:38;13.27;;;8.38;;
21890;SDS011;11110;52.386;16.940;2023-04-24T09:00:09;17.13;;;9.13;;
21890;SDS011;11110;52.386;16.940;2023-04-24T09:02:39;14.57;;;8.60;;
21890;SDS011;11110;52.386;16.940;2023-04-24T09:05:11;15.82;;;9.48;;
21890;SDS011;11110;52.386;16.940;2023-04-24T09:07:42;17.02;;;9.32;;
21890;SDS011;11110;52.386;16.940;2023-04-24T09:10:13;17.45;;;9.30;;
21890;SDS011;11110;52.386;16.940;2023-04-24T09:12:42;13.60;;;8.30;;
21890;SDS011;11110;52.386;16.940;2023-04-24T09:15:13;15.88;;;8.93;;
21890;SDS011;11110;52.386;16.940;2023-04-24T09:17:43;17.88;;;9.30;;
21890;SDS011;11110;52.386;16.940;2023-04-24T09:20:12;13.45;;;8.90;;
21890;SDS011;11110;52.386;16.940;2023-04-24T09:22:41;16.90;;;8.90;;
21890;SDS011;11110;52.386;16.940;2023-04-24T09:25:10;14.38;;;8.75;;
21890;SDS011;11110;52.386;16.940;2023-04-24T09:27:43;14.90;;;9.00;;
21890;SDS011;11110;52.386;16.940;2023-04-24T09:30:14;15.32;;;8.75;;
21890;SDS011;11110;52.386;16.940;2023-04-24T09:32:49;14.90;;;9.43;;
21890;SDS011;11110;52.386;16.940;2023-04-24T09:35:26;15.48;;;8.98;;
21890;SDS011;11110;52.386;16.940;2023-04-24T09:37:55;12.68;;;9.05;;
21890;SDS011;11110;52.386;16.940;2023-04-24T09:40:25;11.40;;;8.02;;
21890;SDS011;11110;52.386;16.940;2023-04-24T09:42:54;12.45;;;7.60;;
21890;SDS011;11110;52.386;16.940;2023-04-24T09:45:28;13.13;;;7.82;;
21890;SDS011;11110;52.386;16.940;2023-04-24T09:48:02;12.57;;;7.35;;
21890;SDS011;11110;52.386;16.940;2023-04-24T09:50:31;14.15;;;7.68;;
21890;SDS011;11110;52.386;16.940;2023-04-24T09:53:02;10.48;;;6.88;;
21890;SDS011;11110;52.386;16.940;2023-04-24T09:55:31;13.10;;;6.63;;
21890;SDS011;11110;52.386;16.940;2023-04-24T09:58:00;11.55;;;6.93;;
21890;SDS011;11110;52.386;16.940;2023-04-24T10:00:33;13.85;;;7.18;;
21890;SDS011;11110;52.386;16.940;2023-04-24T10:03:02;10.52;;;6.30;;
21890;SDS011;11110;52.386;16.940;2023-04-24T10:05:32;11.90;;;6.28;;
21890;SDS011;11110;52.386;16.940;2023-04-24T10:08:03;12.07;;;6.60;;
21890;SDS011;11110;52.386;16.940;2023-04-24T10:10:33;11.73;;;7.00;;
21890;SDS011;11110;52.386;16.940;2023-04-24T10:13:03;13.18;;;7.43;;
21890;SDS011;11110;52.386;16.940;2023-04-24T10:15:33;16.35;;;7.32;;
21890;SDS011;11110;52.386;16.940;2023-04-24T10:18:04;13.48;;;7.20;;
21890;SDS011;11110;52.386;16.940;2023-04-24T10:20:34;11.20;;;6.28;;
21890;SDS011;11110;52.386;16.940;2023-04-24T10:23:03;9.52;;;6.28;;
21890;SDS011;11110;52.386;16.940;2023-04-24T10:25:33;12.63;;;6.45;;
21890;SDS011;11110;52.386;16.940;2023-04-24T10:28:03;12.38;;;7.00;;
21890;SDS011;11110;52.386;16.940;2023-04-24T10:30:36;12.95;;;7.05;;
21890;SDS011;11110;52.386;16.940;2023-04-24T10:33:05;12.95;;;7.53;;
21890;SDS011;11110;52.386;16.940;2023-04-24T10:35:37;14.15;;;6.78;;
21890;SDS011;11110;52.386;16.940;2023-04-24T10:38:11;9.90;;;6.45;;
21890;SDS011;11110;52.386;16.940;2023-04-24T10:40:42;13.02;;;6.65;;
21890;SDS011;11110;52.386;16.940;2023-04-24T10:43:11;15.07;;;7.70;;
21890;SDS011;11110;52.386;16.940;2023-04-24T10:48:43;13.18;;;7.68;;
21890;SDS011;11110;52.386;16.940;2023-04-24T10:51:21;14.02;;;7.47;;
21890;SDS011;11110;52.386;16.940;2023-04-24T10:53:50;17.17;;;8.00;;
21890;SDS011;11110;52.386;16.940;2023-04-24T10:56:19;13.15;;;7.07;;
21890;SDS011;11110;52.386;16.940;2023-04-24T10:58:49;12.07;;;7.05;;
21890;SDS011;11110;52.386;16.940;2023-04-24T11:01:25;12.60;;;7.22;;
21890;SDS011;11110;52.386;16.940;2023-04-24T11:03:57;11.65;;;6.75;;
21890;SDS011;11110;52.386;16.940;2023-04-24T11:06:30;18.65;;;8.27;;
21890;SDS011;11110;52.386;16.940;2023-04-24T11:09:02;13.90;;;7.50;;
21890;SDS011;11110;52.386;16.940;2023-04-24T11:11:33;11.00;;;6.25;;
21890;SDS011;11110;52.386;16.940;2023-04-24T11:14:05;18.65;;;8.40;;
21890;SDS011;11110;52.386;16.940;2023-04-24T11:16:44;12.32;;;6.38;;
21890;SDS011;11110;52.386;16.940;2023-04-24T11:19:21;11.77;;;5.38;;
21890;SDS011;11110;52.386;16.940;2023-04-24T11:21:55;9.02;;;4.50;;
21890;SDS011;11110;52.386;16.940;2023-04-24T11:24:29;10.15;;;5.65;;
21890;SDS011;11110;52.386;16.940;2023-04-24T11:27:00;12.30;;;5.55;;
21890;SDS011;11110;52.386;16.940;2023-04-24T11:29:38;11.95;;;6.43;;
21890;SDS011;11110;52.386;16.940;2023-04-24T11:32:18;16.13;;;6.93;;
21890;SDS011;11110;52.386;16.940;2023-04-24T11:34:53;9.40;;;4.55;;
21890;SDS011;11110;52.386;16.940;2023-04-24T11:37:23;8.45;;;4.38;;
21890;SDS011;11110;52.386;16.940;2023-04-24T11:39:53;9.93;;;4.72;;
21890;SDS011;11110;52.386;16.940;2023-04-24T11:42:23;6.55;;;3.65;;
21890;SDS011;11110;52.386;16.940;2023-04-24T11:44:53;7.60;;;3.80;;
21890;SDS011;11110;52.386;16.940;2023-04-24T11:47:28;7.78;;;3.92;;
21890;SDS011;11110;52.386;16.940;2023-04-24T11:49:59;5.97;;;3.83;;
21890;SDS011;11110;52.386;16.940;2023-04-24T11:52:29;7.38;;;3.88;;
21890;SDS011;11110;52.386;16.940;2023-04-24T11:54:58;7.07;;;3.53;;
21890;SDS011;11110;52.386;16.940;2023-04-24T11:57:28;7.13;;;3.20;;
21890;SDS011;11110;52.386;16.940;2023-04-24T12:00:00;9.02;;;3.80;;
21890;SDS011;11110;52.386;16.940;2023-04-24T12:02:37;9.50;;;4.18;;
21890;SDS011;11110;52.386;16.940;2023-04-24T12:05:08;5.00;;;3.15;;
21890;SDS011;11110;52.386;16.940;2023-04-24T12:07:40;4.30;;;3.20;;
21890;SDS011;11110;52.386;16.940;2023-04-24T12:10:09;7.00;;;3.80;;
21890;SDS011;11110;52.386;16.940;2023-04-24T12:12:38;6.40;;;3.72;;
21890;SDS011;11110;52.386;16.940;2023-04-24T12:15:07;9.20;;;3.92;;
21890;SDS011;11110;52.386;16.940;2023-04-24T12:17:37;5.85;;;3.40;;
21890;SDS011;11110;52.386;16.940;2023-04-24T12:20:11;7.03;;;3.42;;
21890;SDS011;11110;52.386;16.940;2023-04-24T12:22:44;8.45;;;4.25;;
21890;SDS011;11110;52.386;16.940;2023-04-24T12:25:14;9.55;;;4.10;;
21890;SDS011;11110;52.386;16.940;2023-04-24T12:27:43;9.90;;;4.47;;
21890;SDS011;11110;52.386;16.940;2023-04-24T12:30:12;10.27;;;4.63;;
21890;SDS011;11110;52.386;16.940;2023-04-24T12:32:43;8.07;;;3.67;;
21890;SDS011;11110;52.386;16.940;2023-04-24T12:35:14;10.68;;;4.75;;
21890;SDS011;11110;52.386;16.940;2023-04-24T12:37:47;12.40;;;4.78;;
21890;SDS011;11110;52.386;16.940;2023-04-24T12:40:16;8.77;;;4.05;;
21890;SDS011;11110;52.386;16.940;2023-04-24T12:42:47;7.97;;;3.88;;
21890;SDS011;11110;52.386;16.940;2023-04-24T12:45:16;10.63;;;4.55;;
21890;SDS011;11110;52.386;16.940;2023-04-24T12:47:46;8.60;;;4.25;;
21890;SDS011;11110;52.386;16.940;2023-04-24T12:50:18;13.95;;;4.43;;
21890;SDS011;11110;52.386;16.940;2023-04-24T12:52:47;12.13;;;4.82;;
21890;SDS011;11110;52.386;16.940;2023-04-24T12:55:15;12.68;;;4.43;;
21890;SDS011;11110;52.386;16.940;2023-04-24T12:57:44;8.48;;;4.25;;
21890;SDS011;11110;52.386;16.940;2023-04-24T13:00:12;8.45;;;4.18;;
21890;SDS011;11110;52.386;16.940;2023-04-24T13:02:44;11.30;;;3.80;;
21890;SDS011;11110;52.386;16.940;2023-04-24T13:05:13;6.85;;;3.58;;
21890;SDS011;11110;52.386;16.940;2023-04-24T13:07:43;9.30;;;4.72;;
21890;SDS011;11110;52.386;16.940;2023-04-24T13:10:12;7.03;;;3.90;;
21890;SDS011;11110;52.386;16.940;2023-04-24T13:12:41;12.07;;;4.38;;
21890;SDS011;11110;52.386;16.940;2023-04-24T13:15:11;6.55;;;3.25;;
21890;SDS011;11110;52.386;16.940;2023-04-24T13:17:40;10.63;;;4.00;;
21890;SDS011;11110;52.386;16.940;2023-04-24T13:20:09;8.70;;;3.67;;
21890;SDS011;11110;52.386;16.940;2023-04-24T13:22:38;10.00;;;4.35;;
21890;SDS011;11110;52.386;16.940;2023-04-24T13:25:08;7.45;;;3.47;;
21890;SDS011;11110;52.386;16.940;2023-04-24T13:27:37;13.40;;;4.50;;
21890;SDS011;11110;52.386;16.940;2023-04-24T13:30:07;10.20;;;3.33;;
21890;SDS011;11110;52.386;16.940;2023-04-24T13:32:36;10.32;;;3.92;;
21890;SDS011;11110;52.386;16.940;2023-04-24T13:35:05;8.35;;;3.08;;
21890;SDS011;11110;52.386;16.940;2023-04-24T13:37:34;10.07;;;3.92;;
21890;SDS011;11110;52.386;16.940;2023-04-24T13:40:02;8.30;;;3.20;;
21890;SDS011;11110;52.386;16.940;2023-04-24T13:42:35;8.80;;;3.35;;
21890;SDS011;11110;52.386;16.940;2023-04-24T13:45:04;13.82;;;4.65;;
21890;SDS011;11110;52.386;16.940;2023-04-24T13:47:50;12.20;;;3.60;;
21890;SDS011;11110;52.386;16.940;2023-04-24T13:50:20;9.73;;;3.10;;
21890;SDS011;11110;52.386;16.940;2023-04-24T13:52:49;9.35;;;2.85;;
21890;SDS011;11110;52.386;16.940;2023-04-24T13:55:17;10.68;;;2.97;;
21890;SDS011;11110;52.386;16.940;2023-04-24T13:57:47;10.45;;;3.42;;
21890;SDS011;11110;52.386;16.940;2023-04-24T14:00:16;4.90;;;2.03;;
21890;SDS011;11110;52.386;16.940;2023-04-24T14:02:46;7.60;;;2.53;;
21890;SDS011;11110;52.386;16.940;2023-04-24T14:05:14;7.10;;;2.58;;
21890;SDS011;11110;52.386;16.940;2023-04-24T14:07:43;8.00;;;2.53;;
21890;SDS011;11110;52.386;16.940;2023-04-24T14:10:11;8.98;;;2.28;;
21890;SDS011;11110;52.386;16.940;2023-04-24T14:12:40;7.15;;;2.50;;
21890;SDS011;11110;52.386;16.940;2023-04-24T14:15:10;6.97;;;2.13;;
21890;SDS011;11110;52.386;16.940;2023-04-24T14:17:40;11.00;;;2.95;;
21890;SDS011;11110;52.386;16.940;2023-04-24T14:20:09;9.50;;;2.58;;
21890;SDS011;11110;52.386;16.940;2023-04-24T14:22:38;9.00;;;2.65;;
21890;SDS011;11110;52.386;16.940;2023-04-24T14:25:06;6.38;;;2.10;;
21890;SDS011;11110;52.386;16.940;2023-04-24T14:27:35;11.57;;;3.17;;
21890;SDS011;11110;52.386;16.940;2023-04-24T14:30:04;9.48;;;3.22;;
21890;SDS011;11110;52.386;16.940;2023-04-24T14:32:35;6.40;;;2.25;;
21890;SDS011;11110;52.386;16.940;2023-04-24T14:35:04;10.13;;;2.92;;
21890;SDS011;11110;52.386;16.940;2023-04-24T14:37:34;7.70;;;2.55;;
21890;SDS011;11110;52.386;16.940;2023-04-24T14:40:03;7.93;;;2.47;;